Flight Briefing for CPX712

Departure Arrival
Tokyo-Narita International Airport (RJAA)
Click to view FAA NOTAMS
Incheon International Airport (RKSI)
Click to view FAA NOTAMS
Departure Time Arrival Time
N/A N/A
Aircraft Distance
B767-300BDSF 680nm
Departure METAR Arrival METAR
RJAA 261000Z 27004KT 9999 FEW020 09/08 Q1006 NOSIG RMK 1CU020 A2972 RKSI 261000Z 35003KT 8000 NSC 07/03 Q1016 NOSIG
Suggested Route
SOUKA Y16 SAPRA Y685 SEL SEL1T


View recent IFR Routes data
Notes



Charts and Procedures

Charts for RJAA
No chart available
Charts for RKSI
No chart available

Windy.com Weather Map